Lake Levels
Share |
Lake Levels   »   United States   »   Texas
LAKES RIVERS MARINAS NEWS HOUSES EVENTS MAPS
1,658 Lakes:
Lake Store

Lake Levels in Texas, United States

LakeLevels.info is a national information and alert service for lake water levels in the United States. With a FREE member account you can receive water level alerts by email when the water level reaches your desired alert level.


We currently offer Lake Level information and alerts for 104 lakes and serve 14,002 members with 33,606 alerts.


Sign-up for a Lake Level Alert




Filter By State:
Lake Name Current
Level
Full Pool +/-
Full Pool
Reading
Date - Time
Alan Henry (TX) 2,218.28 2,224.00 -5.72 12/3/2016  10:30 AM
Amistad (TX) 1,100.20 1,117.00 -16.80 12/3/2016  10:15 AM
Amon Carter (TX) 920.95 920.00 0.95 12/3/2016  9:00 AM
Aquilla (TX) 537.21 537.50 -0.29 12/3/2016  9:30 AM
Arlington (TX) 545.52 550.00 -4.48 9/6/2016  12:00 AM
Arrowhead (TX) 925.34 926.00 -0.66 12/3/2016  9:00 AM
Athens (TX) 439.43 440.00 -0.57 12/3/2016  9:30 AM
Austin (TX) 492.07 492.80 -0.73 12/3/2016  10:00 AM
Bardwell (TX) 420.66 421.00 -0.34 12/3/2016  10:30 AM
Belton (TX) 594.43 594.00 0.43 12/3/2016  10:00 AM
Benbrook (TX) 689.96 694.00 -4.04 12/3/2016  10:00 AM
Bob Sandlin (TX) 335.57 337.50 -1.93 12/3/2016  9:48 AM
Bonham (TX) 562.23 565.00 -2.77 12/3/2016  8:00 AM
Brady Creek (TX) 1,736.47 1,743.00 -6.53 12/3/2016  10:45 AM
Bridgeport (TX) 836.08 836.00 0.08 12/3/2016  10:00 AM
Brownwood (TX) 1,424.88 1,425.00 -0.12 12/3/2016  10:30 AM
Buchanan (TX) 1,018.02 1,020.50 -2.48 12/3/2016  10:19 AM
Buffalo Creek (TX) 1,045.41 1,049.00 -3.59 9/7/2016  12:00 AM
Caddo (LA TX) 168.75 168.50 0.25 12/2/2016  7:00 AM
Canyon (TX) 909.02 909.00 0.02 12/3/2016  8:15 AM
Cedar Creek (TX) 320.30 322.00 -1.70 12/3/2016  10:45 AM
Champion Creek (TX) 2,060.19 2,083.00 -22.81 12/3/2016  8:57 AM
Cherokee (TX) 278.76 280.00 -1.24 12/3/2016  7:15 AM
Choke Canyon (TX) 200.75 220.50 -19.75 12/3/2016  7:30 AM
Cisco (TX) 1,520.30 1,520.00 0.30 12/3/2016  2:30 PM
Coleman (TX) 1,716.31 1,718.00 -1.69 12/3/2016  10:30 AM
Coleto Creek (TX) 95.30 98.28 -2.98 12/3/2016  10:00 AM
Colorado City (TX) 2,057.39 2,070.20 -12.81 12/3/2016  8:57 AM
Conroe (TX) 200.40 201.00 -0.60 12/3/2016  9:45 AM
Corpus Christi (TX) 92.90 94.00 -1.10 12/3/2016  8:15 AM
E. V. Spence (TX) 1,848.11 1,898.00 -49.89 12/3/2016  8:00 AM
Eagle Mountain (TX) 648.98 649.00 -0.02 12/3/2016  10:00 AM
Falcon (TX) 272.22 301.20 -28.98 12/3/2016  9:15 AM
Fork (TX) 400.16 403.00 -2.84 12/3/2016  10:30 AM
Georgetown (TX) 788.79 791.00 -2.21 12/3/2016  7:00 AM
Graham (TX) 1,075.13 1,075.00 0.13 12/3/2016  10:00 AM
Granbury (TX) 692.60 693.00 -0.40 12/3/2016  9:30 AM
Granger (TX) 504.23 504.00 0.23 12/3/2016  9:00 AM
Grapevine (TX) 535.29 535.00 0.29 12/3/2016  10:45 AM
Hords Creek (TX) 1,897.00 1,900.00 -3.00 12/3/2016  9:30 AM
Houston (TX) 42.27 41.70 0.57 12/3/2016  10:30 AM
Hubbard Creek (TX) 1,182.84 1,183.00 -0.16 12/3/2016  10:15 AM
Hubert M Moss (TX) 713.44 715.00 -1.56 12/3/2016  10:15 AM
Inks (TX) 887.25 886.90 0.35 12/3/2016  10:00 AM
Jacksonville (TX) 421.73 422.00 -0.27 11/7/2016  9:50 AM
JB Thomas (TX) 2,246.97 2,258.00 -11.03 12/3/2016  9:45 AM
Jim Chapman (TX) 436.40 440.00 -3.60 12/3/2016  9:48 AM
Joe Pool (TX) 521.11 522.00 -0.89 12/3/2016  10:00 AM
Kemp (TX) 1,143.98 1,144.00 -0.02 12/3/2016  10:15 AM
Kickapoo (TX) 1,043.89 1,045.00 -1.11 12/3/2016  10:00 AM
Lake O' the Pines (TX) 227.41 228.50 -1.09 12/3/2016  9:48 AM
Lavon (TX) 488.82 492.00 -3.18 12/3/2016  10:00 AM
Leon (TX) 1,372.61 12/3/2016  10:45 AM
Lewisville (TX) 522.07 522.00 0.07 12/3/2016  9:30 AM
Limestone (TX) 361.17 363.00 -1.83 12/3/2016  9:30 AM
Livingston (TX) 131.42 131.00 0.42 12/3/2016  9:15 AM
Lyndon B. Johnson (TX) 824.60 825.00 -0.40 12/3/2016  10:19 AM
MacKenzie (TX) 3,026.53 3,100.00 -73.47 12/3/2016  10:30 AM
Marble Falls (TX) 736.33 737.00 -0.67 12/3/2016  10:19 AM
Martin Creek (TX) 303.78 306.00 -2.22 12/3/2016  10:30 AM
Medina (TX) 1,060.85 1,062.00 -1.15 12/3/2016  10:00 AM
Meredith (TX) 2,875.76 2,941.00 -65.24 12/3/2016  9:30 AM
Mexia (TX) 447.35 448.30 -0.95 12/3/2016  10:15 AM
Millers Creek (TX) 1,334.73 1,334.00 0.73 12/3/2016  9:00 AM
Mineral Wells (TX) 863.58 863.00 0.58 12/3/2016  3:30 PM
Moss Creek (TX) 2,331.55 2,337.00 -5.45 12/3/2016  10:30 AM
Murvaul (TX) 264.06 265.50 -1.44 12/3/2016  9:48 AM
Nacogdoches (TX) 277.63 279.00 -1.37 12/3/2016  9:48 AM
Natural Dam Salt (TX) 2,447.33 2,457.00 -9.67 12/3/2016  8:57 AM
Navarro Mills (TX) 424.27 424.50 -0.23 12/3/2016  10:00 AM
Nocona (TX) 826.76 827.00 -0.24 12/3/2016  8:00 AM
O. C. Fisher (TX) 1,875.29 1,908.00 -32.71 12/3/2016  8:00 AM
O.H. Ivie (TX) 1,517.33 1,551.50 -34.17 12/3/2016  10:15 AM
Oak Creek (TX) 1,990.42 2,000.00 -9.58 12/3/2016  12:00 AM
Palestine (TX) 343.13 345.00 -1.87 12/3/2016  9:48 AM
Palo Pinto (TX) 866.69 867.00 -0.31 12/3/2016  10:15 AM
Pat Cleburne (TX) 730.92 733.60 -2.68 12/3/2016  9:00 AM
Pat Mayse (TX) 448.67 451.00 -2.33 12/3/2016  9:48 AM
Phantom Hill (TX) 1,635.54 1,635.90 -0.36 12/3/2016  10:30 AM
Possum Kingdom (TX) 998.98 1,000.00 -1.02 12/3/2016  9:01 AM
Proctor (TX) 1,161.29 1,162.00 -0.71 12/3/2016  9:30 AM
Ray Hubbard (TX) 434.71 435.50 -0.79 12/3/2016  10:30 AM
Ray Roberts (TX) 632.81 632.50 0.31 12/3/2016  10:15 AM
Red Bluff (TX) 2,824.13 2,827.13 -3.00 12/3/2016  10:15 AM
Richland Chambers (TX) 313.64 315.00 -1.36 12/3/2016  9:01 AM
Sam Rayburn (TX) 160.81 164.40 -3.59 12/3/2016  10:00 AM
Somerville (TX) 238.25 238.00 0.25 12/3/2016  10:00 AM
Squaw Creek (TX) 775.40 775.00 0.40 12/3/2016  9:00 AM
Stamford (TX) 1,416.63 1,417.00 -0.37 12/3/2016  10:30 AM
Steinhagen Reservoir (TX) 82.44 82.40 0.04 12/3/2016  10:00 AM
Stillhouse Hollow (TX) 622.36 622.00 0.36 12/3/2016  9:00 AM
Tawakoni (TX) 434.94 437.50 -2.56 12/3/2016  9:30 AM
Texana (TX) 42.18 44.00 -1.82 12/3/2016  10:00 AM
Texoma (TX) 618.59 617.00 1.59 12/3/2016  10:00 AM
Toledo Bend (TX LA) 167.55 172.00 -4.45 12/3/2016  10:30 AM
Travis (TX) 681.04 681.00 0.04 12/3/2016  10:00 AM
Twin Buttes (TX) 1,901.56 1,940.00 -38.44 9/6/2016  1:15 PM
Tyler (TX) 373.84 375.50 -1.66 12/3/2016  9:48 AM
Waco (TX) 462.45 462.00 0.45 12/3/2016  10:15 AM
Waxahachie (TX) 531.14 9/7/2016  12:00 AM
White River (TX) 2,352.85 12/3/2016  10:15 AM
Whitney (TX) 530.51 533.00 -2.49 12/3/2016  10:15 AM
Worth (TX) 593.04 594.00 -0.96 12/3/2016  10:00 AM
Wright Patman (TX) 223.78 220.60 3.18 12/3/2016  9:48 AM


CURRENT DAILY STREAMFLOW CONDITIONS
High
90th percentile
75th - 89th percentile
25th - 74th percentile
10th - 24th percentile
10th percentile
Low
Not ranked

The colored dots on this map depict streamflow conditions as a percentile, which is computed from the period of record for the current day of the year. Only stations with at least 30 years of record are used. The gray circles indicate other stations that were not ranked in percentiles either because they have fewer than 30 years of record or because they report parameters other than streamflow. Some stations, for example, measure stage only.
TX Daily Streamflow Conditions



U.S. Drought Monitor